Flugplatz Braunschweig Wolfsburg

Bericht für EDVE

vom 23.05. um 17:50 UTC

variable Windrichtung mit 3 kt

Sichtweite 10 km oder mehr

gute Sicht, keine Wolken < 5000 ft, keine CB, keine Wettererscheinungen (CAVOK)

Temperatur 19.0°C

Taupunkt 6.0°C

Luftfeuchtigkeit 43%

Luftdruck 1016 hPa

EDVE 231750Z VRB03KT CAVOK 19/06 Q1016

Prognose für EDVE

vom 23.05. um 17:00 UTC

Zwischen 18:00 UTC und 21:00 UTC

variable Windrichtung mit 3 kt

Sichtweite 10 km oder mehr

keine signifikanten Wettererscheinungen

keine Wolken

TAF EDVE 231700Z 2318/2321 VRB03KT CAVOK
Impressum